Time;durP1;ratioP1;P1;durP2;ratioP2;P2;SDS_P1;SDS_P2;PMS_P1;PMS_P2;Temp;Humidity;BMP_temperature;BMP_pressure;BME280_temperature;BME280_humidity;BME280_pressure;Samples;Min_cycle;Max_cycle;Signal;HPM_P1;HPM_P2
2021/01/16 00:00:25;;;;;;;16.60;11.10;;;2.20;99.90;;;;;;4971729;28;21200;-66
2021/01/16 00:02:52;;;;;;;14.43;10.40;;;2.20;99.90;;;;;;4973635;28;20210;-66
2021/01/16 00:05:19;;;;;;;16.10;10.87;;;2.20;99.90;;;;;;4970400;28;20260;-67
2021/01/16 00:07:47;;;;;;;14.47;11.03;;;2.20;99.90;;;;;;4971327;28;20210;-66
2021/01/16 00:10:15;;;;;;;17.37;11.27;;;2.20;99.90;;;;;;4971054;28;20198;-65
2021/01/16 00:12:42;;;;;;;15.03;10.53;;;2.20;99.90;;;;;;4974935;28;20210;-65
2021/01/16 00:15:11;;;;;;;15.57;10.73;;;2.20;99.90;;;;;;4969072;28;20216;-63
2021/01/16 00:17:38;;;;;;;13.10;10.40;;;2.20;99.90;;;;;;4970945;28;20237;-64
2021/01/16 00:20:05;;;;;;;15.20;11.80;;;2.20;99.90;;;;;;4966518;28;20718;-66
2021/01/16 00:22:32;;;;;;;14.47;10.60;;;2.20;99.90;;;;;;4969278;28;20202;-65
2021/01/16 00:24:59;;;;;;;14.33;10.07;;;2.20;99.90;;;;;;4973946;28;20260;-65
2021/01/16 00:27:26;;;;;;;14.27;10.80;;;2.30;99.90;;;;;;4981558;28;20209;-65
2021/01/16 00:29:54;;;;;;;15.33;10.23;;;2.20;99.90;;;;;;4979298;28;20198;-65
2021/01/16 00:32:21;;;;;;;13.43;9.93;;;2.20;99.90;;;;;;4979064;28;20655;-66
2021/01/16 00:34:48;;;;;;;15.27;10.20;;;2.20;99.90;;;;;;4974225;28;20209;-66
2021/01/16 00:37:14;;;;;;;13.73;10.13;;;2.20;99.90;;;;;;4975423;28;20230;-65
2021/01/16 00:39:41;;;;;;;15.40;10.67;;;2.20;99.90;;;;;;4977631;28;20663;-65
2021/01/16 00:42:07;;;;;;;14.10;10.17;;;2.20;99.90;;;;;;4971658;28;20309;-66
2021/01/16 00:44:34;;;;;;;13.97;10.53;;;2.20;99.90;;;;;;4966604;28;20209;-65
2021/01/16 00:47:00;;;;;;;14.27;10.30;;;2.20;99.90;;;;;;4976330;28;20293;-66
2021/01/16 00:49:27;;;;;;;13.33;10.63;;;2.10;99.90;;;;;;4973038;28;20206;-66
2021/01/16 00:51:54;;;;;;;14.23;10.53;;;2.10;99.90;;;;;;4971686;28;20209;-65
2021/01/16 00:54:20;;;;;;;15.60;11.20;;;2.10;99.90;;;;;;4966206;28;20233;-65
2021/01/16 00:56:47;;;;;;;15.27;11.37;;;2.10;99.90;;;;;;4970730;28;20233;-65
2021/01/16 00:59:13;;;;;;;15.03;11.03;;;2.10;99.90;;;;;;4969531;28;20201;-66
2021/01/16 01:01:40;;;;;;;14.80;10.60;;;2.10;99.90;;;;;;4968502;28;20593;-65
2021/01/16 01:04:09;;;;;;;15.93;10.57;;;2.00;99.90;;;;;;4968369;28;20256;-66
2021/01/16 01:06:37;;;;;;;14.13;10.43;;;2.00;99.90;;;;;;4969033;28;20272;-65
2021/01/16 01:09:04;;;;;;;14.07;11.13;;;2.00;99.90;;;;;;4966692;28;20236;-65
2021/01/16 01:11:30;;;;;;;16.57;11.03;;;2.00;99.90;;;;;;4968923;28;20201;-66
2021/01/16 01:13:57;;;;;;;15.80;11.23;;;2.00;99.90;;;;;;4969436;28;20208;-66
2021/01/16 01:16:23;;;;;;;16.67;12.43;;;2.00;99.90;;;;;;4970109;28;20226;-65
2021/01/16 01:18:50;;;;;;;17.00;12.60;;;2.00;99.90;;;;;;4971708;28;20667;-66
2021/01/16 01:21:16;;;;;;;17.87;12.90;;;2.00;99.90;;;;;;4966822;28;20206;-66
2021/01/16 01:23:44;;;;;;;17.10;12.87;;;1.90;99.90;;;;;;4965612;28;20206;-65
2021/01/16 01:26:10;;;;;;;16.70;12.03;;;1.90;99.90;;;;;;4970700;28;20201;-66
2021/01/16 01:28:37;;;;;;;16.57;11.83;;;2.00;99.90;;;;;;4968042;28;20212;-66
2021/01/16 01:31:03;;;;;;;17.03;12.00;;;2.00;99.90;;;;;;4975551;28;20198;-66
2021/01/16 01:33:30;;;;;;;18.47;13.40;;;2.00;99.90;;;;;;4971142;28;20228;-66
2021/01/16 01:35:56;;;;;;;16.87;12.33;;;2.00;99.90;;;;;;4976895;28;20208;-65
2021/01/16 01:38:23;;;;;;;19.77;13.43;;;2.00;99.90;;;;;;4981663;28;20202;-65
2021/01/16 01:40:50;;;;;;;18.00;12.77;;;1.90;99.90;;;;;;4982322;28;20560;-66
2021/01/16 01:43:17;;;;;;;16.90;12.57;;;1.90;99.90;;;;;;4980097;28;20206;-66
2021/01/16 01:45:43;;;;;;;18.20;12.60;;;1.90;99.90;;;;;;4972768;28;20221;-66
2021/01/16 01:48:11;;;;;;;17.40;12.27;;;1.90;99.90;;;;;;4973055;28;20541;-65
2021/01/16 01:50:38;;;;;;;17.70;12.20;;;1.90;99.90;;;;;;4968498;28;20251;-65
2021/01/16 01:53:06;;;;;;;16.57;12.50;;;1.90;99.90;;;;;;4970379;28;21119;-65
2021/01/16 01:55:34;;;;;;;20.90;14.40;;;1.90;99.90;;;;;;4970772;28;20205;-65
2021/01/16 01:58:02;;;;;;;18.70;12.97;;;1.90;99.90;;;;;;4968831;28;20244;-65
2021/01/16 02:00:29;;;;;;;17.97;12.90;;;1.90;99.90;;;;;;4974388;28;20205;-66
2021/01/16 02:03:00;;;;;;;18.33;13.37;;;1.90;99.90;;;;;;4973522;28;20602;-65
2021/01/16 02:05:27;;;;;;;17.50;12.70;;;1.90;99.90;;;;;;4971631;28;20380;-66
2021/01/16 02:07:53;;;;;;;19.43;12.93;;;1.90;99.90;;;;;;4972031;28;20614;-65
2021/01/16 02:10:23;;;;;;;17.77;12.83;;;1.90;99.90;;;;;;4974992;28;21003;-65
2021/01/16 02:12:52;;;;;;;16.73;12.30;;;1.90;99.90;;;;;;4972185;28;20210;-65
2021/01/16 02:15:42;;;;;;;19.67;13.27;;;1.90;99.90;;;;;;4970992;28;20201;-65
2021/01/16 02:18:19;;;;;;;21.20;11.93;;;1.90;99.90;;;;;;4968392;28;20209;-67
2021/01/16 02:20:47;;;;;;;20.20;14.20;;;1.90;99.90;;;;;;4972765;28;20206;-66
2021/01/16 02:23:34;;;;;;;18.67;12.70;;;1.90;99.90;;;;;;4972113;28;20217;-65
2021/01/16 02:26:31;;;;;;;20.60;13.63;;;1.90;99.90;;;;;;4976179;28;20228;-65
2021/01/16 02:29:01;;;;;;;18.57;13.07;;;1.90;99.90;;;;;;4972866;28;20206;-66
2021/01/16 02:31:31;;;;;;;20.00;13.30;;;1.90;99.90;;;;;;4968480;28;20296;-65
2021/01/16 02:34:01;;;;;;;19.77;13.23;;;1.90;99.90;;;;;;4971855;28;20202;-65
2021/01/16 02:36:39;;;;;;;21.37;15.03;;;2.00;99.90;;;;;;4976930;28;20237;-66
2021/01/16 02:39:11;;;;;;;22.93;14.07;;;2.00;99.90;;;;;;4971727;28;20213;-65
2021/01/16 02:41:47;;;;;;;19.30;14.63;;;2.00;99.90;;;;;;4974467;28;20652;-66
2021/01/16 02:44:20;;;;;;;21.43;14.30;;;2.00;99.90;;;;;;4974982;28;20271;-66
2021/01/16 02:46:49;;;;;;;18.57;13.83;;;2.00;99.90;;;;;;4973140;28;20253;-66
2021/01/16 02:49:37;;;;;;;20.97;15.13;;;2.00;99.90;;;;;;4972090;28;20209;-66
2021/01/16 02:52:06;;;;;;;20.17;13.83;;;2.00;99.90;;;;;;4972210;28;20198;-66
2021/01/16 02:54:38;;;;;;;20.37;14.70;;;2.00;99.90;;;;;;4969553;28;20209;-66
2021/01/16 02:57:06;;;;;;;22.27;14.97;;;1.90;99.90;;;;;;4972450;28;20232;-64
2021/01/16 02:59:36;;;;;;;21.97;14.33;;;2.00;99.90;;;;;;4972015;28;20734;-64
2021/01/16 03:02:05;;;;;;;21.67;15.07;;;1.90;99.90;;;;;;4968822;28;20209;-66
2021/01/16 03:04:32;;;;;;;22.33;15.03;;;1.90;99.90;;;;;;4967969;28;20238;-66
2021/01/16 03:06:59;;;;;;;20.70;14.97;;;1.90;99.90;;;;;;4971355;28;20233;-65
2021/01/16 03:09:28;;;;;;;22.20;14.90;;;1.90;99.90;;;;;;4972528;28;20209;-64
2021/01/16 03:11:54;;;;;;;23.63;14.70;;;1.90;99.90;;;;;;4971348;28;20822;-65
2021/01/16 03:14:23;;;;;;;22.47;15.20;;;2.00;99.90;;;;;;4972890;28;20217;-65
2021/01/16 03:17:07;;;;;;;23.40;15.23;;;1.90;99.90;;;;;;4971608;28;20590;-65
2021/01/16 03:19:34;;;;;;;19.83;14.03;;;2.00;99.90;;;;;;4972794;28;20198;-65
2021/01/16 03:22:07;;;;;;;19.37;14.43;;;2.00;99.90;;;;;;4971332;28;20206;-65
2021/01/16 03:24:33;;;;;;;20.33;14.20;;;2.00;99.90;;;;;;4974612;28;20249;-66
2021/01/16 03:27:00;;;;;;;20.50;14.13;;;1.90;99.90;;;;;;4970820;28;20225;-66
2021/01/16 03:29:26;;;;;;;21.00;14.00;;;2.00;99.90;;;;;;4972330;28;20273;-65
2021/01/16 03:31:54;;;;;;;19.47;13.73;;;1.90;99.90;;;;;;4971035;28;20208;-66
2021/01/16 03:34:20;;;;;;;20.10;14.73;;;1.90;99.90;;;;;;4972578;28;20199;-66
2021/01/16 03:36:47;;;;;;;24.53;15.23;;;1.90;99.90;;;;;;4970129;28;20233;-65
2021/01/16 03:39:13;;;;;;;22.73;14.57;;;1.90;99.90;;;;;;4975666;28;20210;-64
2021/01/16 03:41:39;;;;;;;25.00;15.53;;;1.90;99.90;;;;;;4971507;28;20207;-65
2021/01/16 03:44:06;;;;;;;22.90;15.50;;;2.00;99.90;;;;;;4971782;28;20213;-66
2021/01/16 03:46:33;;;;;;;25.50;15.33;;;2.00;99.90;;;;;;4970547;28;20742;-66
2021/01/16 03:49:00;;;;;;;22.10;15.43;;;1.90;99.90;;;;;;4970420;28;20217;-66
2021/01/16 03:51:27;;;;;;;21.07;14.47;;;2.00;99.90;;;;;;4971066;28;20247;-65
2021/01/16 03:53:53;;;;;;;21.57;15.07;;;2.00;99.90;;;;;;4968526;28;20742;-66
2021/01/16 03:56:19;;;;;;;23.87;15.53;;;2.00;99.90;;;;;;4971933;28;20221;-64
2021/01/16 03:58:46;;;;;;;21.63;15.23;;;2.00;99.90;;;;;;4972667;28;20202;-65
2021/01/16 04:01:12;;;;;;;22.93;16.00;;;2.00;99.90;;;;;;4972300;28;20206;-65
2021/01/16 04:03:39;;;;;;;23.77;15.97;;;1.90;99.90;;;;;;4970221;28;22076;-65
2021/01/16 04:06:06;;;;;;;24.47;16.60;;;2.00;99.90;;;;;;4971309;28;20280;-65
2021/01/16 04:08:33;;;;;;;22.90;15.30;;;2.00;99.90;;;;;;4966587;28;20216;-66
2021/01/16 04:10:59;;;;;;;24.17;15.87;;;2.00;99.90;;;;;;4969761;28;20201;-65
2021/01/16 04:13:26;;;;;;;22.30;15.50;;;2.00;99.90;;;;;;4970472;28;20212;-65
2021/01/16 04:15:53;;;;;;;22.23;15.93;;;2.00;99.90;;;;;;4969890;28;20666;-66
2021/01/16 04:18:20;;;;;;;23.37;15.77;;;1.90;99.90;;;;;;4973759;28;21089;-65
2021/01/16 04:20:47;;;;;;;24.67;16.17;;;1.90;99.90;;;;;;4978951;28;20210;-65
2021/01/16 04:23:14;;;;;;;21.40;14.67;;;1.90;99.90;;;;;;4977608;28;20198;-65
2021/01/16 04:25:41;;;;;;;22.93;16.37;;;1.90;99.90;;;;;;4978847;28;20212;-65
2021/01/16 04:28:07;;;;;;;23.23;16.60;;;1.90;99.90;;;;;;4976556;28;20209;-65
2021/01/16 04:30:33;;;;;;;23.27;15.17;;;1.90;99.90;;;;;;4978506;28;20210;-64
2021/01/16 04:33:00;;;;;;;24.07;16.23;;;1.80;99.90;;;;;;4978134;28;20209;-66
2021/01/16 04:35:26;;;;;;;25.27;15.63;;;1.80;99.90;;;;;;4978457;28;20259;-66
2021/01/16 04:37:53;;;;;;;26.33;16.47;;;1.90;99.90;;;;;;4978488;28;20217;-66
2021/01/16 04:40:20;;;;;;;26.33;15.80;;;1.80;99.90;;;;;;4980335;28;20206;-65
2021/01/16 04:42:48;;;;;;;22.60;16.00;;;1.90;99.90;;;;;;4971795;28;20202;-65
2021/01/16 04:45:16;;;;;;;23.40;15.70;;;1.90;99.90;;;;;;4973738;28;20240;-64
2021/01/16 04:47:44;;;;;;;22.13;16.03;;;1.90;99.90;;;;;;4968996;28;20206;-65
2021/01/16 04:50:13;;;;;;;24.70;17.23;;;1.80;99.90;;;;;;4971279;28;20202;-65
2021/01/16 04:52:41;;;;;;;24.13;15.20;;;1.90;99.90;;;;;;4971757;28;20205;-65
2021/01/16 04:55:10;;;;;;;23.57;15.13;;;1.80;99.90;;;;;;4968973;28;20691;-64
2021/01/16 04:57:39;;;;;;;22.77;15.27;;;1.90;99.90;;;;;;4976737;28;20226;-65
2021/01/16 05:00:07;;;;;;;23.73;15.77;;;1.90;99.90;;;;;;4979326;28;20213;-65
2021/01/16 05:02:38;;;;;;;21.57;15.30;;;1.90;99.90;;;;;;4974715;28;20201;-65
2021/01/16 05:05:06;;;;;;;21.80;15.27;;;1.90;99.90;;;;;;4968304;28;21042;-65
2021/01/16 05:07:34;;;;;;;23.60;16.07;;;1.90;99.90;;;;;;4970026;28;20740;-64
2021/01/16 05:10:01;;;;;;;26.70;16.43;;;1.90;99.90;;;;;;4968552;28;20206;-65
2021/01/16 05:12:52;;;;;;;23.53;16.50;;;1.90;99.90;;;;;;4969693;28;20209;-65
2021/01/16 05:15:23;;;;;;;22.90;15.17;;;1.90;99.90;;;;;;4969052;28;20203;-64
2021/01/16 05:18:00;;;;;;;23.77;16.43;;;1.80;99.90;;;;;;4967362;28;20288;-67
2021/01/16 05:20:27;;;;;;;24.73;15.93;;;1.90;99.90;;;;;;4969947;28;20213;-67
2021/01/16 05:23:11;;;;;;;24.03;16.50;;;1.90;99.90;;;;;;4969166;28;20203;-67
2021/01/16 05:25:40;;;;;;;24.17;16.00;;;1.80;99.90;;;;;;4969774;28;20204;-65
2021/01/16 05:28:09;;;;;;;22.87;15.20;;;1.90;99.90;;;;;;4966498;28;20225;-64
2021/01/16 05:30:53;;;;;;;23.47;15.77;;;1.80;99.90;;;;;;4971214;28;20807;-65
2021/01/16 05:33:21;;;;;;;26.43;16.67;;;1.90;99.90;;;;;;4968548;28;20220;-65
2021/01/16 05:35:50;;;;;;;24.03;16.53;;;1.90;99.90;;;;;;4966440;28;22050;-65
2021/01/16 05:38:17;;;;;;;30.30;18.13;;;1.80;99.90;;;;;;4969726;28;20642;-67
2021/01/16 05:40:44;;;;;;;27.37;18.17;;;1.90;99.90;;;;;;4972634;28;20258;-64
2021/01/16 05:43:12;;;;;;;25.60;17.83;;;1.80;99.90;;;;;;4975364;28;20209;-65
2021/01/16 05:45:41;;;;;;;26.03;17.10;;;1.80;99.90;;;;;;4966774;28;20197;-64
2021/01/16 05:48:08;;;;;;;23.90;16.87;;;1.90;99.90;;;;;;4969177;28;20221;-65
2021/01/16 05:50:39;;;;;;;26.23;17.83;;;1.80;99.90;;;;;;4967682;28;20198;-65
2021/01/16 05:53:06;;;;;;;26.37;17.00;;;1.80;99.90;;;;;;4968355;28;20225;-65
2021/01/16 05:55:33;;;;;;;26.77;17.67;;;1.80;99.90;;;;;;4969599;28;20248;-65
2021/01/16 05:58:08;;;;;;;26.40;16.70;;;1.80;99.90;;;;;;4970309;28;20222;-66
2021/01/16 06:00:37;;;;;;;26.23;17.80;;;1.70;99.90;;;;;;4971598;28;20202;-65
2021/01/16 06:03:06;;;;;;;22.30;16.67;;;1.80;99.90;;;;;;4968687;28;20209;-65
2021/01/16 06:05:34;;;;;;;23.53;16.97;;;1.80;99.90;;;;;;4969650;28;20229;-65
2021/01/16 06:08:02;;;;;;;25.20;16.23;;;1.80;99.90;;;;;;4966660;28;20203;-65
2021/01/16 06:10:34;;;;;;;26.77;17.17;;;1.80;99.90;;;;;;4969092;28;20202;-65
2021/01/16 06:13:17;;;;;;;29.37;19.77;;;1.80;99.90;;;;;;4972267;28;20221;-66
2021/01/16 06:15:49;;;;;;;27.00;17.53;;;1.80;99.90;;;;;;4973300;28;20201;-66
2021/01/16 06:18:22;;;;;;;29.10;19.60;;;1.80;99.90;;;;;;4968955;28;20218;-65
2021/01/16 06:20:51;;;;;;;25.30;17.77;;;1.80;99.90;;;;;;4973175;28;20202;-66
2021/01/16 06:23:21;;;;;;;26.03;17.60;;;1.80;99.90;;;;;;4970972;28;20213;-65
2021/01/16 06:25:53;;;;;;;25.47;17.87;;;1.80;99.90;;;;;;4973160;28;20206;-65
2021/01/16 06:28:22;;;;;;;26.87;18.87;;;1.70;99.90;;;;;;4973116;28;20203;-65
2021/01/16 06:30:54;;;;;;;29.07;18.70;;;1.80;99.90;;;;;;4971787;28;20197;-65
2021/01/16 06:33:28;;;;;;;28.10;18.33;;;1.70;99.90;;;;;;4968549;28;20213;-65
2021/01/16 06:36:00;;;;;;;27.57;18.00;;;1.70;99.90;;;;;;4971728;28;20470;-64
2021/01/16 06:38:29;;;;;;;28.53;18.90;;;1.70;99.90;;;;;;4969212;28;20279;-65
2021/01/16 06:40:55;;;;;;;27.70;17.90;;;1.70;99.90;;;;;;4973406;28;20201;-65
2021/01/16 06:43:24;;;;;;;27.67;18.57;;;1.70;99.90;;;;;;4971909;28;20197;-64
2021/01/16 06:45:52;;;;;;;29.70;19.10;;;1.70;99.90;;;;;;4975709;28;20209;-65
2021/01/16 06:48:24;;;;;;;27.60;18.73;;;1.70;99.90;;;;;;4971358;28;20209;-64
2021/01/16 06:50:53;;;;;;;28.07;18.83;;;1.70;99.90;;;;;;4972672;28;20773;-64
2021/01/16 06:53:26;;;;;;;29.77;19.93;;;1.70;99.90;;;;;;4970685;28;20209;-64
2021/01/16 06:56:05;;;;;;;28.37;19.00;;;1.70;99.90;;;;;;4972576;28;20202;-64
2021/01/16 06:58:42;;;;;;;30.33;20.60;;;1.70;99.90;;;;;;4971418;28;20329;-66
2021/01/16 07:01:11;;;;;;;31.87;19.63;;;1.70;99.90;;;;;;4973861;28;20248;-66
2021/01/16 07:03:48;;;;;;;32.13;20.33;;;1.70;99.90;;;;;;4971326;28;20245;-66
2021/01/16 07:06:17;;;;;;;28.77;20.27;;;1.70;99.90;;;;;;4972077;28;20198;-66
2021/01/16 07:08:44;;;;;;;31.03;20.03;;;1.70;99.90;;;;;;4971177;28;20202;-66
2021/01/16 07:11:11;;;;;;;29.63;19.63;;;1.70;99.90;;;;;;4971988;28;20228;-66
2021/01/16 07:13:41;;;;;;;28.57;19.17;;;1.70;99.90;;;;;;4973182;28;20215;-67
2021/01/16 07:16:10;;;;;;;28.20;19.60;;;1.70;99.90;;;;;;4970963;28;20221;-66
2021/01/16 07:18:37;;;;;;;24.40;17.83;;;1.70;99.90;;;;;;4971659;28;20225;-66
2021/01/16 07:21:05;;;;;;;29.40;19.23;;;1.70;99.90;;;;;;4976038;28;20202;-66
2021/01/16 07:23:34;;;;;;;32.40;19.83;;;1.70;99.90;;;;;;4976611;28;20197;-66
2021/01/16 07:26:01;;;;;;;28.07;18.87;;;1.70;99.90;;;;;;4979474;28;20244;-66
2021/01/16 07:28:28;;;;;;;25.70;17.83;;;1.70;99.90;;;;;;4979255;28;20217;-67
2021/01/16 07:30:56;;;;;;;26.13;18.60;;;1.70;99.90;;;;;;4979521;28;20205;-67
2021/01/16 07:33:29;;;;;;;26.53;17.50;;;1.70;99.90;;;;;;4979865;28;20593;-66
2021/01/16 07:35:57;;;;;;;30.00;18.33;;;1.70;99.90;;;;;;4973750;28;20290;-66
2021/01/16 07:38:26;;;;;;;23.27;16.90;;;1.70;99.90;;;;;;4969889;28;20624;-64
2021/01/16 07:40:57;;;;;;;26.30;16.13;;;1.70;99.90;;;;;;4971641;28;20198;-67
2021/01/16 07:44:07;;;;;;;25.23;16.67;;;1.70;99.90;;;;;;4972568;28;21044;-65
2021/01/16 07:46:35;;;;;;;22.37;16.03;;;1.70;99.90;;;;;;4901831;29;20213;-66
2021/01/16 07:49:03;;;;;;;22.07;15.77;;;1.70;99.90;;;;;;4965369;28;20210;-67
2021/01/16 07:51:35;;;;;;;26.63;15.63;;;1.70;99.90;;;;;;4976658;28;20568;-67
2021/01/16 07:54:04;;;;;;;21.13;14.80;;;1.70;99.90;;;;;;4976037;28;20666;-66
2021/01/16 07:56:38;;;;;;;21.47;14.13;;;1.70;99.90;;;;;;4971404;28;20199;-65
2021/01/16 07:59:15;;;;;;;22.13;14.57;;;1.70;99.90;;;;;;4970586;28;20860;-67
2021/01/16 08:02:18;;;;;;;22.23;13.77;;;1.70;99.90;;;;;;4970678;28;20209;-67
2021/01/16 08:04:58;;;;;;;20.80;13.10;;;1.70;99.90;;;;;;4980346;28;20244;-67
2021/01/16 08:07:49;;;;;;;19.03;12.43;;;1.70;99.90;;;;;;4979871;28;20694;-67
2021/01/16 08:10:18;;;;;;;16.77;10.83;;;1.80;99.90;;;;;;4978217;28;20208;-67
2021/01/16 08:12:48;;;;;;;18.03;11.17;;;1.70;99.90;;;;;;4979055;28;20206;-68
2021/01/16 08:15:18;;;;;;;17.83;12.07;;;1.80;99.90;;;;;;4979037;28;20198;-66
2021/01/16 08:17:47;;;;;;;21.63;12.50;;;1.80;99.90;;;;;;4973980;28;20240;-65
2021/01/16 08:20:19;;;;;;;18.83;12.50;;;1.80;99.90;;;;;;4970270;28;20717;-66
2021/01/16 08:22:51;;;;;;;18.33;11.10;;;1.80;99.90;;;;;;4970496;28;20217;-66
2021/01/16 08:25:23;;;;;;;17.43;11.17;;;1.80;99.90;;;;;;4970928;28;20208;-66
2021/01/16 08:27:51;;;;;;;21.07;12.17;;;1.80;99.90;;;;;;4968372;28;20205;-66
2021/01/16 08:30:20;;;;;;;19.23;11.30;;;1.80;99.90;;;;;;4970608;28;20198;-71
2021/01/16 08:32:57;;;;;;;17.20;12.23;;;1.80;99.90;;;;;;4968553;28;20206;-66
2021/01/16 08:35:27;;;;;;;18.10;11.33;;;1.80;99.90;;;;;;4970707;28;20206;-66
2021/01/16 08:37:54;;;;;;;20.43;12.73;;;1.80;99.90;;;;;;4982466;28;20236;-65
2021/01/16 08:40:36;;;;;;;17.03;11.23;;;1.80;99.90;;;;;;4980979;28;20205;-65
2021/01/16 08:43:04;;;;;;;14.57;10.20;;;1.80;99.90;;;;;;4976644;28;20202;-66
2021/01/16 08:45:30;;;;;;;16.53;11.10;;;1.80;99.90;;;;;;4979845;28;20218;-66
2021/01/16 08:47:58;;;;;;;13.47;9.17;;;1.80;99.90;;;;;;4969063;28;20209;-66
2021/01/16 08:50:30;;;;;;;13.63;9.87;;;1.80;99.90;;;;;;4968749;28;20210;-67
2021/01/16 08:52:56;;;;;;;15.97;10.70;;;1.80;99.90;;;;;;4976348;28;20217;-67
2021/01/16 08:55:28;;;;;;;16.17;10.07;;;1.80;99.90;;;;;;4978635;28;20248;-64
2021/01/16 08:58:08;;;;;;;13.30;9.63;;;1.80;99.90;;;;;;4979273;28;20283;-64
2021/01/16 09:00:36;;;;;;;14.63;9.90;;;1.80;99.90;;;;;;4980145;28;20562;-65
2021/01/16 09:03:16;;;;;;;13.90;9.30;;;1.80;99.90;;;;;;4979867;28;20232;-65
2021/01/16 09:05:45;;;;;;;15.47;9.40;;;1.80;99.90;;;;;;4979948;28;20227;-65
2021/01/16 09:08:22;;;;;;;14.20;9.47;;;1.90;99.90;;;;;;4978618;28;20205;-66
2021/01/16 09:10:49;;;;;;;11.53;8.87;;;1.90;99.90;;;;;;4981653;28;20202;-66
2021/01/16 09:13:26;;;;;;;13.03;8.30;;;1.90;99.90;;;;;;4979671;28;20209;-64
2021/01/16 09:15:53;;;;;;;12.87;9.03;;;1.90;99.90;;;;;;4979926;28;20224;-66
2021/01/16 09:18:20;;;;;;;12.60;8.77;;;1.90;99.90;;;;;;4977304;28;20229;-66
2021/01/16 09:20:57;;;;;;;13.40;9.23;;;2.00;99.90;;;;;;4977478;28;20198;-66
2021/01/16 09:23:25;;;;;;;12.70;9.00;;;2.00;99.90;;;;;;4979421;28;20202;-66
2021/01/16 09:25:54;;;;;;;12.00;8.30;;;2.00;99.90;;;;;;4979251;28;20209;-66
2021/01/16 09:28:42;;;;;;;12.27;8.70;;;2.00;99.90;;;;;;4977688;28;20209;-66
2021/01/16 09:31:20;;;;;;;12.53;8.60;;;2.00;99.90;;;;;;4980028;28;20202;-64
2021/01/16 09:33:48;;;;;;;10.33;7.27;;;2.00;99.90;;;;;;4978454;28;20194;-64
2021/01/16 09:36:46;;;;;;;13.73;8.00;;;2.00;99.90;;;;;;4965780;28;22561;-66
2021/01/16 09:39:24;;;;;;;14.13;9.07;;;2.00;99.90;;;;;;4969427;28;20194;-65
2021/01/16 09:41:53;;;;;;;11.30;8.13;;;2.00;99.90;;;;;;4965502;28;20204;-64
2021/01/16 09:45:02;;;;;;;14.30;8.37;;;2.10;99.90;;;;;;4966593;28;20206;-65
2021/01/16 09:47:50;;;;;;;12.00;8.00;;;2.10;99.90;;;;;;4977976;28;20217;-66
2021/01/16 09:50:18;;;;;;;13.97;9.17;;;2.10;99.90;;;;;;4977672;28;20240;-65
2021/01/16 09:52:50;;;;;;;14.40;8.97;;;2.00;99.90;;;;;;4978704;28;20671;-65
2021/01/16 09:55:22;;;;;;;13.97;8.50;;;2.10;99.90;;;;;;4977924;28;20214;-66
2021/01/16 09:57:48;;;;;;;13.40;8.27;;;2.10;99.90;;;;;;4980456;28;20587;-64
2021/01/16 10:00:17;;;;;;;12.67;8.37;;;2.10;99.90;;;;;;4979650;28;20272;-66
2021/01/16 10:02:44;;;;;;;11.00;7.80;;;2.10;99.90;;;;;;4980971;28;20210;-66
2021/01/16 10:05:15;;;;;;;11.27;7.73;;;2.10;99.90;;;;;;4979519;28;20226;-66
2021/01/16 10:07:43;;;;;;;12.23;8.47;;;2.20;99.90;;;;;;4978870;28;20257;-63
2021/01/16 10:10:18;;;;;;;13.23;8.73;;;2.20;99.90;;;;;;4980545;28;20210;-65
2021/01/16 10:12:45;;;;;;;12.23;8.87;;;2.20;99.90;;;;;;4977668;28;20340;-66
2021/01/16 10:15:15;;;;;;;13.90;9.60;;;2.20;99.90;;;;;;4971956;28;20236;-66
2021/01/16 10:17:46;;;;;;;15.60;9.67;;;2.20;99.90;;;;;;4973599;28;20840;-66
2021/01/16 10:20:16;;;;;;;14.73;9.70;;;2.30;99.90;;;;;;4969697;28;20225;-68
2021/01/16 10:22:46;;;;;;;13.30;9.83;;;2.30;99.90;;;;;;4975180;28;20213;-65
2021/01/16 10:25:15;;;;;;;15.97;10.27;;;2.20;99.90;;;;;;4978336;28;20198;-66
2021/01/16 10:27:47;;;;;;;15.17;9.83;;;2.30;99.90;;;;;;4982661;28;20202;-67
2021/01/16 10:30:19;;;;;;;16.90;11.00;;;2.30;99.90;;;;;;4972279;28;20206;-66
2021/01/16 10:32:47;;;;;;;18.00;10.77;;;2.30;99.90;;;;;;4975553;28;20203;-65
2021/01/16 10:35:22;;;;;;;17.43;11.40;;;2.30;99.90;;;;;;4979176;28;20202;-67
2021/01/16 10:37:50;;;;;;;19.00;12.10;;;2.30;99.90;;;;;;4978897;28;20233;-66
2021/01/16 10:40:18;;;;;;;17.63;12.00;;;2.30;99.90;;;;;;4980075;28;20202;-66
2021/01/16 10:42:46;;;;;;;18.60;12.03;;;2.20;99.90;;;;;;4980171;28;20213;-65
2021/01/16 10:45:14;;;;;;;20.07;12.53;;;2.20;99.90;;;;;;4975796;28;20210;-63
2021/01/16 10:47:43;;;;;;;18.20;11.83;;;2.20;99.90;;;;;;4979404;28;20213;-66
2021/01/16 10:50:12;;;;;;;20.70;13.20;;;2.20;99.90;;;;;;4977616;28;20205;-67
2021/01/16 10:52:39;;;;;;;18.93;12.73;;;2.20;99.90;;;;;;4980550;28;20205;-66
2021/01/16 10:55:08;;;;;;;19.77;12.53;;;2.20;99.90;;;;;;4978983;28;20252;-66
2021/01/16 10:57:44;;;;;;;19.70;12.23;;;2.20;99.90;;;;;;4975232;28;20222;-65
2021/01/16 11:00:13;;;;;;;20.53;12.47;;;2.20;99.90;;;;;;4977684;28;20276;-68
2021/01/16 11:02:42;;;;;;;21.00;13.23;;;2.20;99.90;;;;;;4980983;28;20206;-67
2021/01/16 11:05:25;;;;;;;20.57;13.37;;;2.20;99.90;;;;;;4980727;28;20257;-66
2021/01/16 11:07:54;;;;;;;20.50;13.83;;;2.10;99.90;;;;;;4975334;28;21153;-68
2021/01/16 11:10:32;;;;;;;22.30;14.63;;;2.10;99.90;;;;;;4976812;28;20211;-66
2021/01/16 11:13:20;;;;;;;23.30;14.20;;;2.10;99.90;;;;;;4978591;28;20215;-66
2021/01/16 11:15:51;;;;;;;22.83;13.37;;;2.10;99.90;;;;;;4979474;28;20214;-65
2021/01/16 11:18:32;;;;;;;21.23;13.30;;;2.10;99.90;;;;;;4977575;28;20213;-66
2021/01/16 11:21:06;;;;;;;22.83;13.70;;;2.20;99.90;;;;;;4978808;28;20663;-66
2021/01/16 11:24:03;;;;;;;20.50;13.90;;;2.10;99.90;;;;;;4978081;28;20208;-66
2021/01/16 11:26:46;;;;;;;23.33;14.97;;;2.20;99.90;;;;;;4971602;28;20212;-66
2021/01/16 11:29:17;;;;;;;21.53;15.17;;;2.20;99.90;;;;;;4976766;28;20193;-66
2021/01/16 11:31:49;;;;;;;24.10;14.03;;;2.20;99.90;;;;;;4974429;28;20221;-67
2021/01/16 11:34:20;;;;;;;24.50;14.90;;;2.20;99.90;;;;;;4971923;28;20248;-67
2021/01/16 11:37:01;;;;;;;22.47;14.37;;;2.20;99.90;;;;;;4977539;28;20269;-65
2021/01/16 11:39:44;;;;;;;23.17;14.90;;;2.20;99.90;;;;;;4971733;28;20206;-66
2021/01/16 11:42:12;;;;;;;20.20;13.67;;;2.20;99.90;;;;;;4969109;28;20210;-65
2021/01/16 11:44:54;;;;;;;22.70;15.20;;;2.20;99.90;;;;;;4970631;28;20209;-65
2021/01/16 11:47:21;;;;;;;22.77;14.47;;;2.20;99.90;;;;;;4967915;28;20679;-67
2021/01/16 11:49:48;;;;;;;23.77;14.47;;;2.20;99.90;;;;;;4971669;28;20198;-65
2021/01/16 11:52:14;;;;;;;21.90;15.37;;;2.20;99.90;;;;;;4969519;28;20206;-67
2021/01/16 11:54:41;;;;;;;23.87;14.73;;;2.10;99.90;;;;;;4969844;28;20206;-67
2021/01/16 11:57:10;;;;;;;23.07;14.80;;;2.00;99.90;;;;;;4966608;28;20232;-66
2021/01/16 11:59:40;;;;;;;25.23;15.00;;;1.90;99.90;;;;;;4968279;28;20206;-65
2021/01/16 12:02:08;;;;;;;25.10;16.43;;;1.70;99.90;;;;;;4971576;28;20567;-66
2021/01/16 12:04:35;;;;;;;26.33;16.83;;;1.60;99.90;;;;;;4977801;28;20268;-62
2021/01/16 12:07:01;;;;;;;28.47;17.27;;;1.40;99.90;;;;;;4981599;28;20206;-63
2021/01/16 12:09:29;;;;;;;26.77;15.83;;;1.30;99.90;;;;;;4980204;28;20205;-64
2021/01/16 12:11:58;;;;;;;31.30;19.33;;;1.20;99.90;;;;;;4982884;28;20206;-65
2021/01/16 12:14:35;;;;;;;33.00;19.83;;;1.10;99.90;;;;;;4974490;28;20206;-66
2021/01/16 12:17:10;;;;;;;32.37;18.93;;;1.10;99.90;;;;;;4974694;28;20236;-65
2021/01/16 12:19:37;;;;;;;36.87;21.60;;;1.00;99.90;;;;;;4976971;28;20197;-65
2021/01/16 12:22:07;;;;;;;39.17;22.40;;;0.90;99.90;;;;;;4975450;28;20240;-65
2021/01/16 12:24:33;;;;;;;36.50;21.50;;;0.80;99.90;;;;;;4974687;28;20205;-67
2021/01/16 12:27:03;;;;;;;40.10;23.60;;;0.80;99.90;;;;;;4976649;28;20205;-66
2021/01/16 12:29:40;;;;;;;41.07;23.03;;;0.70;99.90;;;;;;4975853;28;20643;-67
2021/01/16 12:32:10;;;;;;;41.83;24.80;;;0.70;99.90;;;;;;4976269;28;20306;-65
2021/01/16 12:34:47;;;;;;;40.80;22.40;;;0.70;99.90;;;;;;4974907;28;20197;-65
2021/01/16 12:37:14;;;;;;;39.63;22.00;;;0.70;99.90;;;;;;4974480;28;20237;-64
2021/01/16 12:39:44;;;;;;;43.87;23.90;;;0.70;99.90;;;;;;4974418;28;20209;-64
2021/01/16 12:42:12;;;;;;;42.43;23.57;;;0.60;99.90;;;;;;4976115;28;20221;-67
2021/01/16 12:44:38;;;;;;;44.60;24.87;;;0.70;99.90;;;;;;4974131;28;20336;-67
2021/01/16 12:47:05;;;;;;;41.20;24.07;;;0.70;99.90;;;;;;4975638;28;20202;-65
2021/01/16 12:49:34;;;;;;;43.67;24.20;;;0.60;99.90;;;;;;4974336;28;20236;-66
2021/01/16 12:52:00;;;;;;;44.30;25.13;;;0.50;99.90;;;;;;4975008;28;20753;-65
2021/01/16 12:54:27;;;;;;;44.57;26.17;;;0.50;99.90;;;;;;4974542;28;20886;-65